Atlanticbeach, North Carolina
Current Conditions -  °F | °C
As of 5:58 AM on Thursday 23 Oct 2014 (Local Time) from KMRH Reporting Station
Clear Clear  
Wind Chill: 11°   Ceiling: Unl
Heat Index: 11°   Visibility: 10mi
Dew Point:   Wind: 15mph
Humidity: 80%   Direction: 320°NW
Pressure: 29.96"   Gusts: NA
Location:  34.6984°N, 76.7775°W
Report Text: KMRH 230958Z AUTO 32013KT 10SM CLR 11/08 A2996 RMK AO2 SLP145 T01110078 TSNO
Loading
Personal Weather Stations






























Interactive Weather Map New forecast layout! Learn more

10-Day Weather Forecast

Advertisements
Track Severe Weather on mobile